createdAt,value
2023-03-29T00:01:35.051Z,17.34
2023-03-29T00:04:38.758Z,17.34
2023-03-29T00:07:41.678Z,17.33
2023-03-29T00:10:43.717Z,17.33
2023-03-29T00:13:45.871Z,17.33
2023-03-29T00:16:48.151Z,17.32
2023-03-29T00:19:50.393Z,17.31
2023-03-29T00:22:52.420Z,17.31
2023-03-29T00:25:54.775Z,17.29
2023-03-29T00:28:56.805Z,17.28
2023-03-29T00:31:59.141Z,17.26
2023-03-29T00:35:01.273Z,17.25
2023-03-29T00:38:06.042Z,17.25
2023-03-29T00:41:08.901Z,17.23
2023-03-29T00:44:49.092Z,17.23
2023-03-29T00:47:57.274Z,17.22
2023-03-29T00:51:05.376Z,17.23
2023-03-29T00:54:10.507Z,17.21
2023-03-29T00:57:14.865Z,17.21
2023-03-29T01:00:20.830Z,17.19
2023-03-29T01:03:27.719Z,17.18
2023-03-29T01:06:33.951Z,17.19
2023-03-29T01:09:37.921Z,17.17
2023-03-29T01:12:46.639Z,17.15
2023-03-29T01:15:48.933Z,17.15
2023-03-29T01:18:52.163Z,17.14
2023-03-29T01:22:10.550Z,17.11
2023-03-29T01:25:34.051Z,17.11
2023-03-29T01:28:42.440Z,17.11
2023-03-29T01:31:50.478Z,17.08
2023-03-29T01:35:00.513Z,17.08
2023-03-29T01:38:18.381Z,17.07
2023-03-29T01:41:20.676Z,17.07
2023-03-29T01:45:07.999Z,17.06
2023-03-29T01:48:25.325Z,17.05
2023-03-29T01:51:47.020Z,17.06
2023-03-29T01:54:55.970Z,17.04
2023-03-29T01:58:00.613Z,17.03
2023-03-29T02:01:05.799Z,17.02
2023-03-29T02:04:13.078Z,17.00
2023-03-29T02:07:17.899Z,17.00
2023-03-29T02:10:21.617Z,17.00
2023-03-29T02:13:23.610Z,16.98
2023-03-29T02:16:25.682Z,16.99
2023-03-29T02:19:29.086Z,16.96
2023-03-29T02:22:39.063Z,16.95
2023-03-29T02:25:42.205Z,16.94
2023-03-29T02:28:44.594Z,16.93
2023-03-29T02:31:55.228Z,16.93
2023-03-29T02:35:07.337Z,16.92
2023-03-29T02:38:14.620Z,16.92
2023-03-29T02:41:17.969Z,16.93
2023-03-29T02:44:26.444Z,16.92
2023-03-29T02:47:39.346Z,16.90
2023-03-29T02:50:45.526Z,16.89
2023-03-29T02:54:15.518Z,16.90
2023-03-29T02:57:18.167Z,16.87
2023-03-29T03:00:20.505Z,16.88
2023-03-29T03:03:22.643Z,16.87
2023-03-29T03:06:25.044Z,16.86
2023-03-29T03:09:27.364Z,16.86
2023-03-29T03:12:29.668Z,16.84
2023-03-29T03:15:35.521Z,16.81
2023-03-29T03:18:37.905Z,16.82
2023-03-29T03:21:39.912Z,16.81
2023-03-29T03:24:41.952Z,16.80
2023-03-29T03:27:45.062Z,16.79
2023-03-29T03:30:47.118Z,16.79
2023-03-29T03:33:49.547Z,16.79
2023-03-29T03:36:51.616Z,16.79
2023-03-29T03:39:53.992Z,16.77
2023-03-29T03:42:56.024Z,16.77
2023-03-29T03:45:58.405Z,16.77
2023-03-29T03:49:00.477Z,16.76
2023-03-29T03:52:02.619Z,16.75
2023-03-29T03:55:05.192Z,16.81
2023-03-29T03:58:08.092Z,16.95
2023-03-29T04:01:10.117Z,17.05
2023-03-29T04:04:12.498Z,17.16
2023-03-29T04:07:17.653Z,17.32
2023-03-29T04:10:20.707Z,17.39
2023-03-29T04:13:23.065Z,17.44
2023-03-29T04:16:25.340Z,17.49
2023-03-29T04:19:27.416Z,17.62
2023-03-29T04:22:29.550Z,17.68
2023-03-29T04:25:31.657Z,17.70
2023-03-29T04:28:33.711Z,17.69
2023-03-29T04:31:36.047Z,17.76
2023-03-29T04:34:38.477Z,17.88
2023-03-29T04:37:41.780Z,17.97
2023-03-29T04:40:44.184Z,17.98
2023-03-29T04:43:46.846Z,17.99
2023-03-29T04:46:49.026Z,17.99
2023-03-29T04:49:51.111Z,17.95
2023-03-29T04:52:53.398Z,17.97
2023-03-29T04:55:55.577Z,17.99
2023-03-29T04:58:57.668Z,17.98
2023-03-29T05:02:01.107Z,17.99
2023-03-29T05:05:03.802Z,17.97
2023-03-29T05:08:06.045Z,17.97
2023-03-29T05:11:11.576Z,17.97
2023-03-29T05:14:13.667Z,18.05
2023-03-29T05:17:15.674Z,18.12
2023-03-29T05:20:17.782Z,18.22
2023-03-29T05:23:20.197Z,18.26
2023-03-29T05:26:23.251Z,18.24
2023-03-29T05:29:25.435Z,18.25
2023-03-29T05:32:28.015Z,18.23
2023-03-29T05:35:30.182Z,18.21
2023-03-29T05:38:35.692Z,18.21
2023-03-29T05:41:38.762Z,18.19
2023-03-29T05:44:41.154Z,18.19
2023-03-29T05:47:43.210Z,18.21
2023-03-29T05:50:49.971Z,18.17
2023-03-29T05:53:52.358Z,18.15
2023-03-29T05:56:54.471Z,18.18
2023-03-29T05:59:56.656Z,18.27
2023-03-29T06:03:03.661Z,18.36
2023-03-29T06:06:15.080Z,18.41
2023-03-29T06:09:17.289Z,18.43
2023-03-29T06:12:20.934Z,18.42
2023-03-29T06:15:24.138Z,18.42
2023-03-29T06:18:26.637Z,18.42
2023-03-29T06:21:29.302Z,18.44
2023-03-29T06:24:31.970Z,18.43
2023-03-29T06:27:34.445Z,18.47
2023-03-29T06:30:36.500Z,18.48
2023-03-29T06:33:38.908Z,18.52
2023-03-29T06:36:40.983Z,18.56
2023-03-29T06:39:43.624Z,18.63
2023-03-29T06:42:46.458Z,18.74
2023-03-29T06:45:48.462Z,18.89
2023-03-29T06:48:51.255Z,18.94
2023-03-29T06:51:53.826Z,18.97
2023-03-29T06:54:56.382Z,18.95
2023-03-29T06:58:01.688Z,19.02
2023-03-29T07:01:05.541Z,19.00
2023-03-29T07:04:09.226Z,19.02
2023-03-29T07:07:20.738Z,18.99
2023-03-29T07:10:34.385Z,18.99
2023-03-29T07:13:36.416Z,19.01
2023-03-29T07:16:38.989Z,19.03
2023-03-29T07:19:41.134Z,19.03
2023-03-29T07:22:44.452Z,19.07
2023-03-29T07:25:46.930Z,19.07
2023-03-29T07:28:49.476Z,19.05
2023-03-29T07:31:51.622Z,19.03
2023-03-29T07:34:53.728Z,19.14
2023-03-29T07:37:56.078Z,19.39
2023-03-29T07:40:58.427Z,19.65
2023-03-29T07:44:06.947Z,19.73
2023-03-29T07:47:09.285Z,19.77
2023-03-29T07:50:12.186Z,19.81
2023-03-29T07:53:14.319Z,19.75
2023-03-29T07:56:16.468Z,19.84
2023-03-29T07:59:18.585Z,19.90
2023-03-29T08:02:21.155Z,19.86
2023-03-29T08:05:37.603Z,19.90
2023-03-29T08:08:42.502Z,19.89
2023-03-29T08:11:44.541Z,19.96
2023-03-29T08:14:47.164Z,20.03
2023-03-29T08:17:49.298Z,20.07
2023-03-29T08:20:52.565Z,20.11
2023-03-29T08:23:54.590Z,20.15
2023-03-29T08:26:56.650Z,20.15
2023-03-29T08:29:58.918Z,20.18
2023-03-29T08:33:01.597Z,20.24
2023-03-29T08:36:04.887Z,20.22
2023-03-29T08:39:09.937Z,20.25
2023-03-29T08:42:39.457Z,20.24
2023-03-29T08:45:41.470Z,20.27
2023-03-29T08:48:59.108Z,20.21
2023-03-29T08:52:04.505Z,20.24
2023-03-29T08:55:15.416Z,20.20
2023-03-29T08:58:21.062Z,20.20
2023-03-29T09:01:24.375Z,20.15
2023-03-29T09:04:31.668Z,20.15
2023-03-29T09:07:33.927Z,20.13
2023-03-29T09:10:54.960Z,20.10
2023-03-29T09:14:17.282Z,20.07
2023-03-29T09:17:32.546Z,20.04
2023-03-29T09:20:49.855Z,20.01
2023-03-29T09:24:10.093Z,19.96
2023-03-29T09:27:35.009Z,19.95
2023-03-29T09:30:41.720Z,19.92
2023-03-29T09:33:54.504Z,19.97
2023-03-29T09:37:03.709Z,20.02
2023-03-29T09:40:13.244Z,20.03
2023-03-29T09:43:19.199Z,20.02
2023-03-29T09:46:34.249Z,20.00
2023-03-29T09:49:41.093Z,19.98
2023-03-29T09:52:43.197Z,19.91
2023-03-29T09:55:51.466Z,19.92
2023-03-29T09:58:53.926Z,19.84
2023-03-29T10:02:09.325Z,19.95
2023-03-29T10:05:16.726Z,20.01
2023-03-29T10:08:27.113Z,20.03
2023-03-29T10:11:30.797Z,20.01
2023-03-29T10:14:43.342Z,19.99
2023-03-29T10:17:46.281Z,19.99
2023-03-29T10:20:48.888Z,19.91
2023-03-29T10:23:59.348Z,19.90
2023-03-29T10:27:11.990Z,19.87
2023-03-29T10:30:25.255Z,19.83
2023-03-29T10:33:33.271Z,19.83
2023-03-29T10:36:36.089Z,19.82
2023-03-29T10:39:39.513Z,19.88
2023-03-29T10:42:49.874Z,19.89
2023-03-29T10:45:56.806Z,19.88
2023-03-29T10:49:04.396Z,19.85
2023-03-29T10:52:08.580Z,19.86
2023-03-29T10:55:13.840Z,19.86
2023-03-29T10:58:16.038Z,19.90
2023-03-29T11:01:40.880Z,19.96
2023-03-29T11:05:24.429Z,19.97
2023-03-29T11:08:43.054Z,19.95
2023-03-29T11:12:15.007Z,19.95
2023-03-29T11:15:43.744Z,20.01
2023-03-29T11:19:14.939Z,19.99
2023-03-29T11:22:19.762Z,20.03
2023-03-29T11:25:33.348Z,20.04
2023-03-29T11:29:04.945Z,19.97
2023-03-29T11:32:22.341Z,19.92
2023-03-29T11:35:39.015Z,19.89
2023-03-29T11:39:18.475Z,19.77
2023-03-29T11:42:33.985Z,19.70
2023-03-29T11:46:02.463Z,19.66
2023-03-29T11:49:16.551Z,19.59
2023-03-29T11:52:53.250Z,19.58
2023-03-29T11:55:56.953Z,19.54
2023-03-29T11:59:05.277Z,19.53
2023-03-29T12:02:47.871Z,19.54
2023-03-29T12:05:56.990Z,19.53
2023-03-29T12:09:06.000Z,19.60
2023-03-29T12:12:24.913Z,19.66
2023-03-29T12:15:31.683Z,19.69
2023-03-29T12:18:40.919Z,19.75
2023-03-29T12:21:44.921Z,19.83
2023-03-29T12:24:51.053Z,19.85
2023-03-29T12:28:17.401Z,19.88
2023-03-29T12:31:26.691Z,19.87
2023-03-29T12:34:43.759Z,19.88
2023-03-29T12:37:54.690Z,19.76
2023-03-29T12:40:59.599Z,19.77
2023-03-29T12:44:03.840Z,19.83
2023-03-29T12:47:06.232Z,19.81
2023-03-29T12:50:23.674Z,19.84
2023-03-29T12:53:41.313Z,19.84
2023-03-29T12:56:55.327Z,19.83
2023-03-29T13:00:19.015Z,19.84
2023-03-29T13:03:28.719Z,19.83
2023-03-29T13:07:02.636Z,19.81
2023-03-29T13:10:09.457Z,19.86
2023-03-29T13:13:16.753Z,19.88
2023-03-29T13:16:28.356Z,19.94
2023-03-29T13:19:41.685Z,20.00
2023-03-29T13:23:15.614Z,20.03
2023-03-29T13:27:00.824Z,20.10
2023-03-29T13:30:22.756Z,20.09
2023-03-29T13:33:53.342Z,20.05
2023-03-29T13:37:17.385Z,20.03
2023-03-29T13:40:32.128Z,20.11
2023-03-29T13:43:52.366Z,20.19
2023-03-29T13:47:37.981Z,20.22
2023-03-29T13:50:53.500Z,20.19
2023-03-29T13:53:57.930Z,20.17
2023-03-29T13:57:08.787Z,20.17
2023-03-29T14:00:42.007Z,20.13
2023-03-29T14:03:46.952Z,20.06
2023-03-29T14:06:53.113Z,20.05
2023-03-29T14:09:56.342Z,20.02
2023-03-29T14:13:04.473Z,19.98
2023-03-29T14:16:12.200Z,20.01
2023-03-29T14:19:16.238Z,20.07
2023-03-29T14:22:21.284Z,20.10
2023-03-29T14:25:24.291Z,19.99
2023-03-29T14:28:28.453Z,20.06
2023-03-29T14:31:33.312Z,20.12
2023-03-29T14:34:35.504Z,20.17
2023-03-29T14:37:38.621Z,20.09
2023-03-29T14:40:43.295Z,20.16
2023-03-29T14:43:46.479Z,20.31
2023-03-29T14:46:48.749Z,20.35
2023-03-29T14:49:51.336Z,20.28
2023-03-29T14:52:53.638Z,20.22
2023-03-29T14:55:56.037Z,20.18
2023-03-29T14:58:58.989Z,20.14
2023-03-29T15:02:01.062Z,20.06
2023-03-29T15:05:23.152Z,20.01
2023-03-29T15:08:35.649Z,19.99
2023-03-29T15:11:39.693Z,19.91
2023-03-29T15:14:42.303Z,19.87
2023-03-29T15:17:52.344Z,19.82
2023-03-29T15:20:54.963Z,19.81
2023-03-29T15:23:59.268Z,19.77
2023-03-29T15:27:20.927Z,19.76
2023-03-29T15:30:38.006Z,19.72
2023-03-29T15:33:41.666Z,19.69
2023-03-29T15:36:45.542Z,19.69
2023-03-29T15:39:48.035Z,19.65
2023-03-29T15:42:50.707Z,19.65
2023-03-29T15:45:52.801Z,19.62
2023-03-29T15:48:54.780Z,19.62
2023-03-29T15:51:56.852Z,19.60
2023-03-29T15:54:58.875Z,19.59
2023-03-29T15:58:01.095Z,19.59
2023-03-29T16:01:37.571Z,19.56
2023-03-29T16:04:39.896Z,19.51
2023-03-29T16:07:41.953Z,19.51
2023-03-29T16:10:44.083Z,19.50
2023-03-29T16:13:46.222Z,19.48
2023-03-29T16:16:48.862Z,19.47
2023-03-29T16:19:51.675Z,19.45
2023-03-29T16:22:54.218Z,19.45
2023-03-29T16:25:56.675Z,19.43
2023-03-29T16:28:58.723Z,19.43
2023-03-29T16:32:01.099Z,19.39
2023-03-29T16:35:04.525Z,19.40
2023-03-29T16:38:07.715Z,19.40
2023-03-29T16:41:17.212Z,19.39
2023-03-29T16:44:23.950Z,19.38
2023-03-29T16:47:27.384Z,19.38
2023-03-29T16:50:29.698Z,19.37
2023-03-29T16:53:31.748Z,19.31
2023-03-29T16:56:36.353Z,19.31
2023-03-29T16:59:38.428Z,19.27
2023-03-29T17:02:40.516Z,19.27
2023-03-29T17:05:50.271Z,19.26
2023-03-29T17:08:53.597Z,19.24
2023-03-29T17:11:55.674Z,19.24
2023-03-29T17:14:57.801Z,19.22
2023-03-29T17:17:59.838Z,19.21
2023-03-29T17:21:03.047Z,19.16
2023-03-29T17:24:05.686Z,19.18
2023-03-29T17:27:07.707Z,19.15
2023-03-29T17:30:10.762Z,19.12
2023-03-29T17:33:13.550Z,19.10
2023-03-29T17:36:15.758Z,19.09
2023-03-29T17:39:18.633Z,19.07
2023-03-29T17:42:20.833Z,19.05
2023-03-29T17:45:22.938Z,19.01
2023-03-29T17:48:25.573Z,19.01
2023-03-29T17:51:28.060Z,18.99
2023-03-29T17:54:30.482Z,18.97
2023-03-29T17:57:32.504Z,18.95
2023-03-29T18:00:34.657Z,18.95
2023-03-29T18:03:37.321Z,18.95
2023-03-29T18:06:39.402Z,18.94
2023-03-29T18:09:41.745Z,18.92
2023-03-29T18:12:44.906Z,18.91
2023-03-29T18:15:47.547Z,18.89
2023-03-29T18:18:49.772Z,18.86
2023-03-29T18:21:52.147Z,18.86
2023-03-29T18:24:54.836Z,18.85
2023-03-29T18:27:56.867Z,18.84
2023-03-29T18:30:59.244Z,18.83
2023-03-29T18:34:01.407Z,18.82
2023-03-29T18:37:03.863Z,18.82
2023-03-29T18:40:08.228Z,18.80
2023-03-29T18:43:10.550Z,18.80
2023-03-29T18:46:13.452Z,18.78
2023-03-29T18:49:15.558Z,18.77
2023-03-29T18:52:17.821Z,18.77
2023-03-29T18:55:20.037Z,18.74
2023-03-29T18:58:23.979Z,18.73
2023-03-29T19:01:26.158Z,18.71
2023-03-29T19:04:28.866Z,18.72
2023-03-29T19:07:31.224Z,18.71
2023-03-29T19:10:36.872Z,18.70
2023-03-29T19:13:39.023Z,18.70
2023-03-29T19:16:42.761Z,18.70
2023-03-29T19:19:44.951Z,18.69
2023-03-29T19:22:47.947Z,18.69
2023-03-29T19:25:57.465Z,18.67
2023-03-29T19:29:00.713Z,18.66
2023-03-29T19:32:03.031Z,18.65
2023-03-29T19:35:05.679Z,18.64
2023-03-29T19:38:07.723Z,18.64
2023-03-29T19:41:09.983Z,18.64
2023-03-29T19:44:13.806Z,18.61
2023-03-29T19:47:16.018Z,18.63
2023-03-29T19:50:18.938Z,18.61
2023-03-29T19:53:23.010Z,18.61
2023-03-29T19:56:28.840Z,18.61
2023-03-29T19:59:31.388Z,18.61
2023-03-29T20:02:35.630Z,18.59
2023-03-29T20:05:38.853Z,18.58
2023-03-29T20:08:41.178Z,18.59
2023-03-29T20:11:49.534Z,18.57
2023-03-29T20:14:51.592Z,18.57
2023-03-29T20:17:56.411Z,18.56
2023-03-29T20:21:01.802Z,18.54
2023-03-29T20:24:04.955Z,18.55
2023-03-29T20:27:07.027Z,18.56
2023-03-29T20:30:10.683Z,18.55
2023-03-29T20:33:13.236Z,18.53
2023-03-29T20:36:18.562Z,18.52
2023-03-29T20:39:25.657Z,18.52
2023-03-29T20:42:28.676Z,18.51
2023-03-29T20:45:35.120Z,18.51
2023-03-29T20:48:54.670Z,18.50
2023-03-29T20:51:59.467Z,18.49
2023-03-29T20:55:01.736Z,18.49
2023-03-29T20:58:04.278Z,18.49
2023-03-29T21:01:06.610Z,18.49
2023-03-29T21:04:10.613Z,18.50
2023-03-29T21:07:14.050Z,18.48
2023-03-29T21:10:16.503Z,18.47
2023-03-29T21:13:18.545Z,18.47
2023-03-29T21:16:20.968Z,18.46
2023-03-29T21:19:24.143Z,18.46
2023-03-29T21:22:26.221Z,18.47
2023-03-29T21:25:28.226Z,18.44
2023-03-29T21:28:30.869Z,18.44
2023-03-29T21:31:33.115Z,18.42
2023-03-29T21:34:35.288Z,18.41
2023-03-29T21:37:37.662Z,18.41
2023-03-29T21:40:39.689Z,18.41
2023-03-29T21:43:42.065Z,18.42
2023-03-29T21:46:44.219Z,18.40
2023-03-29T21:49:46.334Z,18.40
2023-03-29T21:52:48.805Z,18.40
2023-03-29T21:55:52.135Z,18.41
2023-03-29T21:58:54.289Z,18.40
2023-03-29T22:01:56.363Z,18.39
2023-03-29T22:04:58.433Z,18.38
2023-03-29T22:08:00.563Z,18.40
2023-03-29T22:11:08.096Z,18.39
2023-03-29T22:14:12.362Z,18.38
2023-03-29T22:17:15.814Z,18.38
2023-03-29T22:20:18.501Z,18.39
2023-03-29T22:23:20.765Z,18.37
2023-03-29T22:26:29.873Z,18.38
2023-03-29T22:29:32.141Z,18.37
2023-03-29T22:32:34.179Z,18.36
2023-03-29T22:35:36.274Z,18.36
2023-03-29T22:38:41.234Z,18.35
2023-03-29T22:41:43.408Z,18.35
2023-03-29T22:44:45.575Z,18.36
2023-03-29T22:47:47.606Z,18.35
2023-03-29T22:50:49.688Z,18.35
2023-03-29T22:53:51.947Z,18.34
2023-03-29T22:56:54.300Z,18.32
2023-03-29T22:59:56.362Z,18.32
2023-03-29T23:02:58.872Z,18.30
2023-03-29T23:06:04.603Z,18.30
2023-03-29T23:09:06.747Z,18.29
2023-03-29T23:12:09.690Z,18.30
2023-03-29T23:15:12.419Z,18.29
2023-03-29T23:18:15.461Z,18.28
2023-03-29T23:21:17.572Z,18.28
2023-03-29T23:24:19.594Z,18.27
2023-03-29T23:27:21.634Z,18.28
2023-03-29T23:30:24.362Z,18.28
2023-03-29T23:33:27.398Z,18.27
2023-03-29T23:36:31.132Z,18.26
2023-03-29T23:39:33.731Z,18.26
2023-03-29T23:42:37.083Z,18.25
2023-03-29T23:45:39.565Z,18.26
2023-03-29T23:48:49.361Z,18.25
2023-03-29T23:51:51.472Z,18.25
2023-03-29T23:54:53.558Z,18.24
2023-03-29T23:57:55.865Z,18.23
